createdAt,value
2019-06-08T00:01:02.573Z,956.97
2019-06-08T00:03:28.899Z,956.97
2019-06-08T00:05:55.209Z,956.99
2019-06-08T00:08:22.949Z,957.07
2019-06-08T00:10:47.854Z,957.01
2019-06-08T00:13:15.171Z,957.03
2019-06-08T00:15:40.495Z,957.04
2019-06-08T00:18:06.796Z,957.02
2019-06-08T00:20:33.127Z,957.05
2019-06-08T00:22:59.461Z,956.98
2019-06-08T00:25:25.774Z,956.98
2019-06-08T00:27:52.105Z,956.99
2019-06-08T00:30:18.411Z,956.88
2019-06-08T00:32:44.740Z,956.91
2019-06-08T00:35:11.050Z,956.91
2019-06-08T00:37:37.381Z,956.88
2019-06-08T00:40:03.733Z,956.87
2019-06-08T00:42:30.050Z,956.84
2019-06-08T00:44:56.373Z,956.81
2019-06-08T00:47:22.727Z,956.91
2019-06-08T00:49:49.014Z,956.88
2019-06-08T00:52:15.325Z,956.88
2019-06-08T00:54:41.655Z,956.88
2019-06-08T00:57:07.981Z,956.90
2019-06-08T00:59:34.311Z,956.81
2019-06-08T01:02:00.642Z,956.80
2019-06-08T01:04:27.261Z,956.80
2019-06-08T01:06:53.281Z,956.81
2019-06-08T01:09:20.227Z,956.75
2019-06-08T01:11:45.911Z,956.89
2019-06-08T01:14:12.217Z,956.86
2019-06-08T01:16:38.543Z,956.88
2019-06-08T01:19:04.853Z,956.90
2019-06-08T01:21:31.159Z,956.83
2019-06-08T01:23:57.498Z,956.84
2019-06-08T01:26:23.966Z,956.85
2019-06-08T01:28:50.122Z,956.79
2019-06-08T01:31:16.445Z,956.83
2019-06-08T01:33:42.753Z,956.80
2019-06-08T01:36:09.127Z,956.86
2019-06-08T01:38:35.392Z,956.90
2019-06-08T01:41:01.698Z,956.90
2019-06-08T01:43:28.028Z,956.84
2019-06-08T01:45:54.340Z,956.91
2019-06-08T01:48:22.232Z,956.86
2019-06-08T01:50:46.972Z,956.94
2019-06-08T01:53:13.332Z,956.91
2019-06-08T01:55:39.638Z,956.89
2019-06-08T01:58:05.961Z,957.00
2019-06-08T02:00:39.275Z,957.01
2019-06-08T02:02:58.591Z,957.01
2019-06-08T02:05:26.007Z,956.99
2019-06-08T02:07:51.227Z,956.93
2019-06-08T02:10:17.579Z,956.95
2019-06-08T02:12:43.872Z,956.92
2019-06-08T02:15:10.201Z,956.96
2019-06-08T02:17:36.511Z,956.89
2019-06-08T02:20:02.818Z,956.87
2019-06-08T02:22:29.143Z,956.91
2019-06-08T02:24:55.465Z,956.91
2019-06-08T02:27:21.786Z,956.96
2019-06-08T02:29:48.093Z,956.89
2019-06-08T02:32:14.430Z,956.91
2019-06-08T02:34:40.734Z,956.83
2019-06-08T02:37:07.058Z,956.90
2019-06-08T02:39:35.348Z,956.95
2019-06-08T02:41:59.750Z,956.99
2019-06-08T02:44:26.075Z,956.93
2019-06-08T02:46:52.377Z,956.99
2019-06-08T02:49:18.686Z,956.99
2019-06-08T02:51:45.023Z,956.93
2019-06-08T02:54:11.315Z,956.97
2019-06-08T02:56:39.271Z,956.95
2019-06-08T02:59:03.974Z,957.01
2019-06-08T03:01:31.408Z,956.98
2019-06-08T03:03:56.674Z,957.03
2019-06-08T03:06:22.967Z,957.09
2019-06-08T03:08:49.383Z,957.09
2019-06-08T03:11:15.609Z,957.08
2019-06-08T03:13:42.526Z,956.99
2019-06-08T03:16:08.236Z,956.98
2019-06-08T03:18:35.892Z,956.94
2019-06-08T03:21:00.869Z,957.00
2019-06-08T03:23:27.174Z,957.01
2019-06-08T03:25:53.697Z,956.96
2019-06-08T03:28:19.829Z,956.97
2019-06-08T03:30:53.805Z,957.06
2019-06-08T03:33:12.481Z,957.04
2019-06-08T03:35:47.258Z,957.13
2019-06-08T03:38:05.093Z,957.11
2019-06-08T03:40:31.431Z,957.12
2019-06-08T03:42:59.771Z,957.12
2019-06-08T03:45:24.074Z,957.12
2019-06-08T03:47:50.376Z,957.17
2019-06-08T03:50:16.712Z,957.17
2019-06-08T03:52:44.095Z,957.15
2019-06-08T03:55:09.350Z,957.22
2019-06-08T03:57:35.806Z,957.23
2019-06-08T04:00:01.986Z,957.35
2019-06-08T04:02:28.293Z,957.28
2019-06-08T04:04:54.600Z,957.28
2019-06-08T04:07:20.911Z,957.22
2019-06-08T04:09:47.243Z,957.29
2019-06-08T04:12:13.546Z,957.33
2019-06-08T04:14:39.927Z,957.28
2019-06-08T04:17:06.270Z,957.24
2019-06-08T04:19:32.574Z,957.23
2019-06-08T04:21:58.914Z,957.25
2019-06-08T04:24:25.228Z,957.31
2019-06-08T04:26:51.565Z,957.34
2019-06-08T04:29:17.869Z,957.34
2019-06-08T04:31:45.932Z,957.31
2019-06-08T04:34:10.506Z,957.31
2019-06-08T04:36:36.814Z,957.36
2019-06-08T04:39:03.183Z,957.33
2019-06-08T04:41:29.509Z,957.34
2019-06-08T04:43:55.810Z,957.34
2019-06-08T04:46:22.124Z,957.31
2019-06-08T04:48:49.943Z,957.34
2019-06-08T04:51:14.770Z,957.32
2019-06-08T04:53:43.064Z,957.38
2019-06-08T04:56:07.436Z,957.41
2019-06-08T04:58:33.739Z,957.39
2019-06-08T05:01:00.097Z,957.37
2019-06-08T05:03:26.411Z,957.39
2019-06-08T05:05:52.740Z,957.37
2019-06-08T05:08:20.991Z,957.41
2019-06-08T05:10:45.409Z,957.34
2019-06-08T05:13:11.673Z,957.37
2019-06-08T05:15:39.105Z,957.39
2019-06-08T05:18:04.328Z,957.41
2019-06-08T05:20:38.772Z,957.43
2019-06-08T05:22:56.956Z,957.47
2019-06-08T05:25:23.281Z,957.49
2019-06-08T05:27:49.653Z,957.49
2019-06-08T05:30:15.908Z,957.47
2019-06-08T05:32:43.546Z,957.41
2019-06-08T05:35:08.534Z,957.47
2019-06-08T05:37:34.857Z,957.49
2019-06-08T05:40:01.162Z,957.52
2019-06-08T05:42:27.483Z,957.51
2019-06-08T05:44:53.815Z,957.54
2019-06-08T05:47:20.116Z,957.59
2019-06-08T05:49:47.666Z,957.57
2019-06-08T05:52:12.748Z,957.54
2019-06-08T05:54:39.798Z,957.66
2019-06-08T05:57:05.376Z,957.56
2019-06-08T05:59:31.718Z,957.62
2019-06-08T06:01:58.026Z,957.57
2019-06-08T06:04:24.359Z,957.67
2019-06-08T06:06:51.000Z,957.64
2019-06-08T06:09:16.992Z,957.61
2019-06-08T06:11:44.725Z,957.55
2019-06-08T06:14:09.622Z,957.58
2019-06-08T06:16:35.958Z,957.71
2019-06-08T06:19:02.259Z,957.68
2019-06-08T06:21:28.588Z,957.71
2019-06-08T06:23:54.893Z,957.70
2019-06-08T06:26:21.235Z,957.67
2019-06-08T06:28:47.649Z,957.63
2019-06-08T06:31:13.855Z,957.60
2019-06-08T06:33:41.847Z,957.62
2019-06-08T06:36:06.491Z,957.68
2019-06-08T06:38:32.814Z,957.70
2019-06-08T06:40:59.121Z,957.68
2019-06-08T06:43:25.434Z,957.70
2019-06-08T06:45:52.206Z,957.66
2019-06-08T06:48:18.075Z,957.57
2019-06-08T06:50:44.401Z,957.65
2019-06-08T06:53:10.733Z,957.67
2019-06-08T06:55:37.036Z,957.63
2019-06-08T06:58:03.431Z,957.60
2019-06-08T07:00:29.670Z,957.60
2019-06-08T07:02:55.999Z,957.59
2019-06-08T07:05:22.323Z,957.57
2019-06-08T07:07:48.640Z,957.58
2019-06-08T07:10:14.947Z,957.59
2019-06-08T07:12:41.263Z,957.60
2019-06-08T07:15:07.598Z,957.60
2019-06-08T07:17:33.903Z,957.61
2019-06-08T07:20:00.237Z,957.58
2019-06-08T07:22:26.540Z,957.58
2019-06-08T07:24:52.862Z,957.58
2019-06-08T07:27:19.177Z,957.53
2019-06-08T07:29:47.094Z,957.51
2019-06-08T07:32:11.835Z,957.51
2019-06-08T07:34:41.098Z,957.49
2019-06-08T07:37:04.469Z,957.40
2019-06-08T07:39:30.771Z,957.42
2019-06-08T07:41:57.108Z,957.43
2019-06-08T07:44:23.418Z,957.40
2019-06-08T07:46:49.750Z,957.37
2019-06-08T07:49:16.059Z,957.32
2019-06-08T07:51:57.774Z,957.34
2019-06-08T07:54:08.723Z,957.28
2019-06-08T07:56:35.025Z,957.33
2019-06-08T07:59:01.377Z,957.39
2019-06-08T08:01:36.087Z,957.32
2019-06-08T08:03:54.202Z,957.39
2019-06-08T08:06:20.366Z,957.36
2019-06-08T08:08:46.684Z,957.39
2019-06-08T08:11:12.994Z,957.35
2019-06-08T08:13:39.335Z,957.36
2019-06-08T08:16:05.642Z,957.36
2019-06-08T08:18:32.014Z,957.36
2019-06-08T08:21:04.580Z,957.33
2019-06-08T08:23:24.651Z,957.28
2019-06-08T08:25:51.470Z,957.26
2019-06-08T08:28:17.700Z,957.30
2019-06-08T08:30:43.624Z,957.27
2019-06-08T08:33:09.937Z,957.21
2019-06-08T08:35:38.097Z,957.23
2019-06-08T08:38:04.532Z,957.11
2019-06-08T08:40:28.890Z,957.21
2019-06-08T08:42:55.706Z,957.14
2019-06-08T08:45:21.535Z,957.19
2019-06-08T08:47:48.503Z,957.08
2019-06-08T08:50:14.190Z,957.12
2019-06-08T08:52:41.060Z,957.13
2019-06-08T08:55:08.316Z,957.06
2019-06-08T08:57:33.142Z,957.07
2019-06-08T09:00:04.324Z,957.12
2019-06-08T09:02:27.754Z,957.08
2019-06-08T09:04:53.418Z,957.11
2019-06-08T09:07:18.552Z,957.03
2019-06-08T09:09:44.762Z,957.05
2019-06-08T09:12:11.125Z,957.00
2019-06-08T09:14:38.709Z,957.01
2019-06-08T09:17:04.029Z,957.03
2019-06-08T09:19:30.063Z,956.92
2019-06-08T09:21:58.961Z,956.97
2019-06-08T09:24:22.711Z,956.95
2019-06-08T09:26:49.026Z,956.93
2019-06-08T09:29:15.377Z,957.00
2019-06-08T09:31:41.721Z,956.99
2019-06-08T09:34:14.153Z,956.94
2019-06-08T09:36:34.349Z,957.00
2019-06-08T09:39:03.062Z,957.02
2019-06-08T09:41:30.788Z,956.96
2019-06-08T09:43:55.260Z,956.84
2019-06-08T09:46:19.672Z,956.93
2019-06-08T09:48:48.527Z,956.97
2019-06-08T09:51:12.337Z,956.89
2019-06-08T09:53:41.488Z,956.89
2019-06-08T09:56:07.327Z,956.92
2019-06-08T09:58:31.696Z,956.77
2019-06-08T10:01:02.000Z,956.88
2019-06-08T10:03:24.332Z,956.91
2019-06-08T10:05:50.639Z,956.87
2019-06-08T10:08:20.199Z,956.82
2019-06-08T10:10:43.280Z,956.86
2019-06-08T10:13:10.093Z,956.80
2019-06-08T10:15:35.914Z,956.82
2019-06-08T10:18:03.328Z,956.75
2019-06-08T10:20:30.732Z,956.73
2019-06-08T10:22:54.906Z,956.72
2019-06-08T10:25:21.211Z,956.68
2019-06-08T10:27:47.565Z,956.79
2019-06-08T10:30:13.854Z,956.68
2019-06-08T10:32:40.203Z,956.71
2019-06-08T10:35:09.665Z,956.70
2019-06-08T10:37:32.819Z,956.71
2019-06-08T10:40:02.566Z,956.68
2019-06-08T10:42:25.461Z,956.69
2019-06-08T10:44:51.777Z,956.67
2019-06-08T10:47:18.105Z,956.71
2019-06-08T10:49:44.428Z,956.58
2019-06-08T10:52:12.322Z,956.63
2019-06-08T10:54:37.961Z,956.52
2019-06-08T10:57:07.207Z,956.51
2019-06-08T10:59:30.432Z,956.56
2019-06-08T11:02:00.916Z,956.48
2019-06-08T11:04:23.057Z,956.44
2019-06-08T11:06:49.369Z,956.45
2019-06-08T11:09:18.593Z,956.45
2019-06-08T11:11:42.034Z,956.39
2019-06-08T11:14:12.511Z,956.37
2019-06-08T11:16:34.658Z,956.34
2019-06-08T11:19:02.660Z,956.30
2019-06-08T11:21:28.584Z,956.35
2019-06-08T11:24:13.276Z,956.33
2019-06-08T11:26:28.910Z,956.23
2019-06-08T11:28:53.948Z,956.31
2019-06-08T11:31:20.305Z,956.21
2019-06-08T11:33:48.847Z,956.20
2019-06-08T11:36:14.950Z,956.09
2019-06-08T11:38:39.261Z,956.10
2019-06-08T11:41:09.393Z,956.18
2019-06-08T11:43:31.895Z,956.15
2019-06-08T11:45:58.481Z,956.15
2019-06-08T11:48:24.541Z,956.15
2019-06-08T11:50:50.860Z,956.16
2019-06-08T11:53:18.125Z,956.13
2019-06-08T11:55:43.506Z,956.06
2019-06-08T11:58:12.074Z,956.07
2019-06-08T12:00:37.875Z,956.14
2019-06-08T12:03:03.785Z,956.18
2019-06-08T12:05:28.758Z,956.10
2019-06-08T12:07:57.708Z,956.09
2019-06-08T12:10:21.466Z,956.03
2019-06-08T12:12:47.711Z,956.06
2019-06-08T12:15:17.503Z,956.05
2019-06-08T12:17:40.354Z,955.93
2019-06-08T12:20:09.795Z,956.03
2019-06-08T12:22:32.991Z,955.98
2019-06-08T12:24:59.331Z,955.91
2019-06-08T12:27:33.163Z,955.92
2019-06-08T12:29:51.950Z,955.90
2019-06-08T12:32:18.488Z,955.96
2019-06-08T12:34:44.589Z,955.91
2019-06-08T12:37:14.661Z,955.85
2019-06-08T12:39:38.764Z,955.80
2019-06-08T12:42:03.539Z,955.83
2019-06-08T12:44:29.865Z,955.88
2019-06-08T12:46:58.385Z,955.85
2019-06-08T12:49:22.485Z,955.85
2019-06-08T12:51:51.746Z,955.88
2019-06-08T12:54:16.887Z,955.84
2019-06-08T12:56:41.484Z,955.85
2019-06-08T12:59:12.879Z,955.89
2019-06-08T13:01:34.119Z,955.84
2019-06-08T13:04:00.635Z,955.70
2019-06-08T13:06:28.231Z,955.81
2019-06-08T13:08:53.265Z,955.78
2019-06-08T13:11:21.215Z,955.76
2019-06-08T13:13:45.893Z,955.78
2019-06-08T13:16:12.548Z,955.80
2019-06-08T13:18:40.785Z,955.76
2019-06-08T13:21:16.798Z,955.84
2019-06-08T13:23:31.186Z,955.81
2019-06-08T13:25:57.498Z,955.64
2019-06-08T13:28:25.520Z,955.72
2019-06-08T13:30:50.138Z,955.74
2019-06-08T13:33:16.464Z,955.76
2019-06-08T13:35:42.773Z,955.71
2019-06-08T13:38:09.104Z,955.74
2019-06-08T13:40:37.717Z,955.70
2019-06-08T13:43:01.717Z,955.71
2019-06-08T13:45:28.062Z,955.68
2019-06-08T13:47:54.379Z,955.72
2019-06-08T13:50:22.135Z,955.63
2019-06-08T13:52:48.528Z,955.74
2019-06-08T13:55:29.817Z,955.68
2019-06-08T13:57:39.679Z,955.64
2019-06-08T14:00:08.016Z,955.62
2019-06-08T14:02:32.310Z,955.60
2019-06-08T14:04:59.187Z,955.62
2019-06-08T14:07:31.259Z,955.59
2019-06-08T14:09:51.267Z,955.64
2019-06-08T14:12:20.137Z,955.47
2019-06-08T14:14:43.948Z,955.55
2019-06-08T14:17:10.255Z,955.64
2019-06-08T14:19:38.524Z,955.62
2019-06-08T14:22:02.921Z,955.63
2019-06-08T14:24:34.300Z,955.62
2019-06-08T14:26:55.605Z,955.69
2019-06-08T14:29:23.266Z,955.64
2019-06-08T14:31:48.249Z,955.61
2019-06-08T14:34:14.591Z,955.57
2019-06-08T14:36:41.128Z,955.53
2019-06-08T14:39:10.430Z,955.50
2019-06-08T14:41:33.565Z,955.53
2019-06-08T14:43:59.870Z,955.43
2019-06-08T14:46:28.616Z,955.57
2019-06-08T14:48:52.501Z,955.41
2019-06-08T14:51:18.837Z,955.45
2019-06-08T14:53:45.155Z,955.40
2019-06-08T14:56:11.478Z,955.46
2019-06-08T14:58:38.605Z,955.47
2019-06-08T15:01:04.106Z,955.41
2019-06-08T15:03:30.439Z,955.53
2019-06-08T15:05:57.734Z,955.54
2019-06-08T15:08:23.631Z,955.50
2019-06-08T15:10:49.853Z,955.50
2019-06-08T15:13:15.725Z,955.48
2019-06-08T15:15:42.037Z,955.53
2019-06-08T15:18:11.132Z,955.57
2019-06-08T15:20:34.696Z,955.51
2019-06-08T15:23:01.043Z,955.49
2019-06-08T15:25:29.551Z,955.53
2019-06-08T15:27:53.688Z,955.50
2019-06-08T15:30:21.154Z,955.42
2019-06-08T15:32:48.032Z,955.40
2019-06-08T15:35:12.648Z,955.42
2019-06-08T15:37:40.907Z,955.51
2019-06-08T15:40:07.513Z,955.47
2019-06-08T15:42:32.460Z,955.48
2019-06-08T15:44:59.626Z,955.45
2019-06-08T15:47:24.247Z,955.48
2019-06-08T15:49:50.594Z,955.43
2019-06-08T15:52:17.545Z,955.49
2019-06-08T15:54:43.240Z,955.43
2019-06-08T15:57:09.548Z,955.47
2019-06-08T15:59:40.786Z,955.43
2019-06-08T16:02:02.208Z,955.38
2019-06-08T16:04:30.127Z,955.42
2019-06-08T16:06:54.854Z,955.36
2019-06-08T16:09:21.164Z,955.42
2019-06-08T16:11:47.495Z,955.43
2019-06-08T16:14:13.801Z,955.51
2019-06-08T16:16:40.119Z,955.60
2019-06-08T16:19:06.489Z,955.45
2019-06-08T16:21:34.289Z,955.40
2019-06-08T16:23:59.299Z,955.45
2019-06-08T16:26:25.648Z,955.47
2019-06-08T16:28:51.933Z,955.50
2019-06-08T16:31:18.234Z,955.48
2019-06-08T16:33:44.564Z,955.49
2019-06-08T16:36:10.874Z,955.46
2019-06-08T16:38:38.350Z,955.45
2019-06-08T16:41:03.602Z,955.52
2019-06-08T16:43:30.964Z,955.47
2019-06-08T16:45:56.190Z,955.57
2019-06-08T16:48:22.496Z,955.52
2019-06-08T16:50:48.824Z,955.49
2019-06-08T16:53:15.139Z,955.63
2019-06-08T16:55:41.464Z,955.68
2019-06-08T16:58:07.790Z,955.57
2019-06-08T17:00:37.141Z,955.66
2019-06-08T17:03:00.479Z,955.66
2019-06-08T17:05:26.787Z,955.72
2019-06-08T17:07:53.097Z,955.74
2019-06-08T17:10:19.435Z,955.73
2019-06-08T17:12:45.748Z,955.74
2019-06-08T17:15:12.085Z,955.78
2019-06-08T17:17:38.646Z,955.77
2019-06-08T17:20:05.172Z,955.68
2019-06-08T17:22:32.263Z,955.79
2019-06-08T17:24:57.384Z,955.75
2019-06-08T17:27:27.118Z,955.77
2019-06-08T17:29:50.045Z,955.77
2019-06-08T17:32:16.377Z,955.72
2019-06-08T17:34:42.695Z,955.72
2019-06-08T17:37:08.999Z,955.67
2019-06-08T17:39:35.898Z,955.69
2019-06-08T17:42:01.649Z,955.75
2019-06-08T17:44:27.987Z,955.74
2019-06-08T17:46:54.333Z,955.67
2019-06-08T17:49:20.634Z,955.70
2019-06-08T17:51:46.955Z,955.69
2019-06-08T17:54:13.289Z,955.67
2019-06-08T17:56:39.640Z,955.64
2019-06-08T17:59:05.968Z,955.72
2019-06-08T18:01:34.045Z,955.70
2019-06-08T18:03:58.622Z,955.68
2019-06-08T18:06:27.105Z,955.80
2019-06-08T18:08:51.288Z,955.77
2019-06-08T18:11:17.603Z,955.71
2019-06-08T18:13:45.520Z,955.82
2019-06-08T18:16:10.237Z,955.83
2019-06-08T18:18:39.198Z,955.81
2019-06-08T18:21:02.877Z,955.81
2019-06-08T18:23:29.204Z,955.79
2019-06-08T18:25:55.528Z,955.85
2019-06-08T18:28:21.845Z,955.84
2019-06-08T18:30:49.302Z,955.98
2019-06-08T18:33:14.484Z,956.00
2019-06-08T18:35:41.856Z,956.12
2019-06-08T18:38:07.624Z,956.18
2019-06-08T18:40:33.502Z,956.23
2019-06-08T18:42:59.826Z,956.32
2019-06-08T18:45:27.637Z,956.40
2019-06-08T18:47:52.476Z,956.45
2019-06-08T18:50:18.785Z,956.57
2019-06-08T18:52:46.508Z,956.56
2019-06-08T18:55:11.447Z,956.65
2019-06-08T18:57:38.445Z,956.63
2019-06-08T19:00:08.541Z,956.74
2019-06-08T19:02:30.447Z,956.73
2019-06-08T19:04:57.374Z,956.87
2019-06-08T19:07:23.102Z,956.87
2019-06-08T19:09:49.770Z,956.79
2019-06-08T19:12:17.191Z,956.90
2019-06-08T19:14:42.075Z,956.95
2019-06-08T19:17:08.441Z,956.91
2019-06-08T19:19:34.777Z,956.96
2019-06-08T19:22:01.090Z,956.93
2019-06-08T19:24:28.085Z,956.99
2019-06-08T19:26:53.725Z,957.04
2019-06-08T19:29:20.092Z,957.04
2019-06-08T19:31:49.954Z,957.10
2019-06-08T19:34:12.708Z,957.11
2019-06-08T19:36:41.347Z,957.12
2019-06-08T19:39:07.143Z,957.18
2019-06-08T19:41:31.678Z,957.21
2019-06-08T19:43:58.486Z,957.21
2019-06-08T19:46:24.361Z,957.33
2019-06-08T19:48:54.841Z,957.25
2019-06-08T19:51:17.169Z,957.27
2019-06-08T19:53:46.556Z,957.28
2019-06-08T19:56:09.987Z,957.34
2019-06-08T19:58:50.069Z,957.24
2019-06-08T20:01:02.346Z,957.23
2019-06-08T20:03:28.651Z,957.29
2019-06-08T20:05:54.983Z,957.31
2019-06-08T20:08:21.311Z,957.36
2019-06-08T20:10:48.103Z,957.37
2019-06-08T20:13:13.965Z,957.34
2019-06-08T20:15:43.727Z,957.33
2019-06-08T20:18:06.601Z,957.34
2019-06-08T20:20:32.908Z,957.28
2019-06-08T20:22:59.241Z,957.26
2019-06-08T20:25:27.662Z,957.28
2019-06-08T20:27:51.879Z,957.31
2019-06-08T20:30:18.183Z,957.30
2019-06-08T20:32:44.514Z,957.35
2019-06-08T20:35:10.820Z,957.29
2019-06-08T20:37:37.625Z,957.26
2019-06-08T20:40:11.200Z,957.26
2019-06-08T20:42:30.849Z,957.26
2019-06-08T20:44:57.756Z,957.22
2019-06-08T20:47:22.437Z,957.20
2019-06-08T20:49:49.399Z,957.27
2019-06-08T20:52:17.614Z,957.34
2019-06-08T20:54:42.681Z,957.31
2019-06-08T20:57:07.766Z,957.29
2019-06-08T20:59:34.469Z,957.29
2019-06-08T21:02:00.356Z,957.33
2019-06-08T21:04:27.683Z,957.42
2019-06-08T21:06:54.329Z,957.48
2019-06-08T21:09:19.365Z,957.48
2019-06-08T21:11:49.363Z,957.45
2019-06-08T21:14:12.038Z,957.51
2019-06-08T21:16:38.403Z,957.55
2019-06-08T21:19:04.672Z,957.54
2019-06-08T21:21:31.017Z,957.47
2019-06-08T21:24:00.893Z,957.37
2019-06-08T21:26:23.667Z,957.36
2019-06-08T21:28:52.818Z,957.39
2019-06-08T21:31:17.753Z,957.35
2019-06-08T21:33:42.604Z,957.35
2019-06-08T21:36:08.971Z,957.34
2019-06-08T21:38:37.519Z,957.41
2019-06-08T21:41:02.883Z,957.35
2019-06-08T21:43:28.132Z,957.38
2019-06-08T21:45:54.744Z,957.33
2019-06-08T21:48:20.530Z,957.34
2019-06-08T21:50:48.957Z,957.35
2019-06-08T21:53:13.156Z,957.30
2019-06-08T21:55:39.616Z,957.32
2019-06-08T21:58:07.869Z,957.34
2019-06-08T22:00:39.165Z,957.31
2019-06-08T22:03:00.140Z,957.31
2019-06-08T22:05:24.783Z,957.27
2019-06-08T22:07:51.944Z,957.25
2019-06-08T22:10:17.927Z,957.23
2019-06-08T22:12:43.728Z,957.24
2019-06-08T22:15:10.082Z,957.26
2019-06-08T22:17:38.281Z,957.23
2019-06-08T22:20:03.424Z,957.21
2019-06-08T22:22:28.988Z,957.22
2019-06-08T22:24:55.448Z,957.15
2019-06-08T22:27:21.634Z,957.17
2019-06-08T22:29:48.436Z,957.20
2019-06-08T22:32:14.279Z,957.20
2019-06-08T22:34:40.585Z,957.16
2019-06-08T22:37:08.574Z,957.25
2019-06-08T22:39:33.226Z,957.24
2019-06-08T22:42:01.204Z,957.21
2019-06-08T22:44:28.251Z,957.21
2019-06-08T22:46:53.866Z,957.20
2019-06-08T22:49:18.641Z,957.23
2019-06-08T22:51:44.822Z,957.34
2019-06-08T22:54:11.154Z,957.34
2019-06-08T22:56:37.462Z,957.31
2019-06-08T22:59:05.643Z,957.30
2019-06-08T23:01:30.093Z,957.31
2019-06-08T23:03:59.095Z,957.38
2019-06-08T23:06:22.726Z,957.35
2019-06-08T23:08:49.039Z,957.46
2019-06-08T23:11:17.832Z,957.45
2019-06-08T23:13:41.676Z,957.49
2019-06-08T23:16:08.799Z,957.42
2019-06-08T23:18:34.309Z,957.42
2019-06-08T23:21:02.644Z,957.37
2019-06-08T23:23:27.243Z,957.39
2019-06-08T23:25:53.294Z,957.40
2019-06-08T23:28:19.636Z,957.43
2019-06-08T23:30:47.781Z,957.35
2019-06-08T23:33:12.265Z,957.37
2019-06-08T23:36:07.832Z,957.28
2019-06-08T23:38:05.076Z,957.24
2019-06-08T23:40:31.196Z,957.22
2019-06-08T23:42:58.520Z,957.23
2019-06-08T23:45:23.849Z,957.23
2019-06-08T23:47:50.177Z,957.25
2019-06-08T23:50:17.779Z,957.21
2019-06-08T23:52:42.811Z,957.30
2019-06-08T23:55:11.695Z,957.36
2019-06-08T23:57:37.887Z,957.34
